createdAt,value
2023-03-14T00:00:27.981Z,29.62
2023-03-14T00:02:58.166Z,29.61
2023-03-14T00:05:28.390Z,29.60
2023-03-14T00:07:58.398Z,29.63
2023-03-14T00:10:28.222Z,29.61
2023-03-14T00:12:58.128Z,29.62
2023-03-14T00:15:28.080Z,29.67
2023-03-14T00:17:58.056Z,29.61
2023-03-14T00:20:28.475Z,29.65
2023-03-14T00:22:58.482Z,29.63
2023-03-14T00:25:28.324Z,29.62
2023-03-14T00:27:58.313Z,29.62
2023-03-14T00:30:28.122Z,29.65
2023-03-14T00:32:58.180Z,29.65
2023-03-14T00:35:28.079Z,29.63
2023-03-14T00:37:58.128Z,29.66
2023-03-14T00:40:28.048Z,29.64
2023-03-14T00:42:57.862Z,29.62
2023-03-14T00:45:29.859Z,29.63
2023-03-14T00:47:59.870Z,29.63
2023-03-14T00:50:29.797Z,29.65
2023-03-14T00:52:59.734Z,29.68
2023-03-14T00:55:29.873Z,29.62
2023-03-14T00:58:00.261Z,29.63
2023-03-14T01:00:30.190Z,29.66
2023-03-14T01:03:00.190Z,29.71
2023-03-14T01:05:31.035Z,29.69
2023-03-14T01:08:01.157Z,29.69
2023-03-14T01:10:31.662Z,29.70
2023-03-14T01:13:01.725Z,29.75
2023-03-14T01:15:32.169Z,29.75
2023-03-14T01:18:02.640Z,29.71
2023-03-14T01:20:32.712Z,29.70
2023-03-14T01:23:02.785Z,29.70
2023-03-14T01:25:33.320Z,29.69
2023-03-14T01:28:03.930Z,29.69
2023-03-14T01:30:34.102Z,29.69
2023-03-14T01:33:04.129Z,29.71
2023-03-14T01:35:34.169Z,29.70
2023-03-14T01:38:22.200Z,29.71
2023-03-14T01:40:52.681Z,29.73
2023-03-14T01:43:41.151Z,29.74
2023-03-14T01:49:05.226Z,29.77
2023-03-14T01:51:50.415Z,29.77
2023-03-14T01:54:34.402Z,29.80
2023-03-14T01:57:39.545Z,29.81
2023-03-14T02:00:15.952Z,29.82
2023-03-14T02:02:53.892Z,29.84
2023-03-14T02:05:28.916Z,29.80
2023-03-14T02:08:07.135Z,29.84
2023-03-14T02:10:50.237Z,29.82
2023-03-14T02:13:25.971Z,29.84
2023-03-14T02:19:49.823Z,29.87
2023-03-14T02:22:26.627Z,29.87
2023-03-14T02:25:07.813Z,29.88
2023-03-14T02:27:38.506Z,29.90
2023-03-14T02:33:23.670Z,29.87
2023-03-14T02:36:09.677Z,29.90
2023-03-14T02:38:47.714Z,29.88
2023-03-14T02:41:19.417Z,29.90
2023-03-14T02:43:57.224Z,29.92
2023-03-14T02:46:45.931Z,29.92
2023-03-14T02:52:21.845Z,29.93
2023-03-14T02:55:10.977Z,29.95
2023-03-14T02:57:45.932Z,29.94
2023-03-14T03:03:07.332Z,29.96
2023-03-14T03:05:57.439Z,29.96
2023-03-14T03:08:29.670Z,29.98
2023-03-14T03:11:02.518Z,29.98
2023-03-14T03:13:35.505Z,29.99
2023-03-14T03:16:08.055Z,29.99
2023-03-14T03:18:38.133Z,29.99
2023-03-14T03:21:09.021Z,29.98
2023-03-14T03:23:57.327Z,30.00
2023-03-14T03:26:28.064Z,29.99
2023-03-14T03:28:58.191Z,30.01
2023-03-14T03:31:28.111Z,30.01
2023-03-14T03:33:58.411Z,30.00
2023-03-14T03:36:29.679Z,30.02
2023-03-14T03:39:02.265Z,30.03
2023-03-14T03:41:33.338Z,30.02
2023-03-14T03:44:04.152Z,30.05
2023-03-14T03:46:52.536Z,30.04
2023-03-14T03:52:11.230Z,30.06
2023-03-14T03:54:59.767Z,30.06
2023-03-14T03:57:47.706Z,30.08
2023-03-14T04:00:18.000Z,30.07
2023-03-14T04:03:06.116Z,30.08
2023-03-14T04:05:37.523Z,30.10
2023-03-14T04:08:11.995Z,30.08
2023-03-14T04:10:42.236Z,30.10
2023-03-14T04:13:31.285Z,30.11
2023-03-14T04:16:01.665Z,30.13
2023-03-14T04:18:33.456Z,30.15
2023-03-14T04:21:03.936Z,30.15
2023-03-14T04:23:44.994Z,30.16
2023-03-14T04:29:00.961Z,30.18
2023-03-14T04:31:52.319Z,30.19
2023-03-14T04:34:22.704Z,30.18
2023-03-14T04:36:56.644Z,30.18
2023-03-14T04:39:36.874Z,30.21
2023-03-14T04:42:25.235Z,30.20
2023-03-14T04:45:13.419Z,30.21
2023-03-14T04:48:01.678Z,30.20
2023-03-14T04:50:33.141Z,30.22
2023-03-14T04:53:03.457Z,30.21
2023-03-14T04:55:35.927Z,30.24
2023-03-14T04:58:06.230Z,30.23
2023-03-14T05:00:38.778Z,30.25
2023-03-14T05:03:44.953Z,30.27
2023-03-14T05:06:47.516Z,30.30
2023-03-14T05:09:37.840Z,30.30
2023-03-14T05:12:43.314Z,30.31
2023-03-14T05:15:35.952Z,30.32
2023-03-14T05:21:27.456Z,30.33
2023-03-14T05:24:26.473Z,30.34
2023-03-14T05:27:14.681Z,30.34
2023-03-14T05:30:03.449Z,30.35
2023-03-14T05:32:49.823Z,30.34
2023-03-14T05:35:37.422Z,30.36
2023-03-14T05:38:25.456Z,30.38
2023-03-14T05:44:22.062Z,30.37
2023-03-14T05:47:10.689Z,30.41
2023-03-14T05:49:59.257Z,30.43
2023-03-14T05:53:01.774Z,30.44
2023-03-14T05:55:50.251Z,30.45
2023-03-14T05:58:27.871Z,30.45
2023-03-14T06:01:13.375Z,30.45
2023-03-14T06:04:01.871Z,30.45
2023-03-14T06:06:39.074Z,30.46
2023-03-14T06:09:28.289Z,30.47
2023-03-14T06:12:01.786Z,30.47
2023-03-14T06:14:37.094Z,30.50
2023-03-14T06:17:07.415Z,30.49
2023-03-14T06:19:45.112Z,30.48
2023-03-14T06:22:16.993Z,30.51
2023-03-14T06:24:48.438Z,30.51
2023-03-14T06:27:20.276Z,30.53
2023-03-14T06:30:09.145Z,30.55
2023-03-14T06:32:40.144Z,30.55
2023-03-14T06:35:13.878Z,30.55
2023-03-14T06:37:46.606Z,30.57
2023-03-14T06:40:34.573Z,30.58
2023-03-14T06:46:00.840Z,30.57
2023-03-14T06:48:48.996Z,30.58
2023-03-14T06:51:37.717Z,30.57
2023-03-14T06:54:10.728Z,30.58
2023-03-14T06:56:42.083Z,30.58
2023-03-14T06:59:13.099Z,30.59
2023-03-14T07:01:44.957Z,30.59
2023-03-14T07:07:01.068Z,30.62
2023-03-14T07:09:49.562Z,30.63
2023-03-14T07:12:20.438Z,30.65
2023-03-14T07:15:18.252Z,30.63
2023-03-14T07:17:54.058Z,30.65
2023-03-14T07:20:42.867Z,30.66
2023-03-14T07:23:30.962Z,30.69
2023-03-14T07:26:19.085Z,30.70
2023-03-14T07:29:07.069Z,30.72
2023-03-14T07:31:37.767Z,30.71
2023-03-14T07:34:08.517Z,30.70
2023-03-14T07:36:42.645Z,30.69
2023-03-14T07:39:30.684Z,30.71
2023-03-14T07:45:14.638Z,30.70
2023-03-14T07:48:02.842Z,30.72
2023-03-14T07:50:33.341Z,30.74
2023-03-14T07:53:22.253Z,30.76
2023-03-14T07:56:10.933Z,30.76
2023-03-14T07:58:41.241Z,30.77
2023-03-14T08:03:56.892Z,30.77
2023-03-14T08:06:27.021Z,30.77
2023-03-14T08:09:15.519Z,30.79
2023-03-14T08:11:45.657Z,30.77
2023-03-14T08:14:16.014Z,30.78
2023-03-14T08:17:04.256Z,30.76
2023-03-14T08:19:34.390Z,30.77
2023-03-14T08:22:05.737Z,30.77
2023-03-14T08:24:35.877Z,30.78
2023-03-14T08:27:07.368Z,30.77
2023-03-14T08:29:38.044Z,30.76
2023-03-14T08:32:08.138Z,30.78
2023-03-14T08:34:38.382Z,30.79
2023-03-14T08:37:19.860Z,30.79
2023-03-14T08:39:55.570Z,30.79
2023-03-14T08:42:25.468Z,30.78
2023-03-14T08:45:17.106Z,30.80
2023-03-14T08:47:48.534Z,30.80
2023-03-14T08:50:18.880Z,30.81
2023-03-14T08:52:48.761Z,30.81
2023-03-14T08:55:19.071Z,30.80
2023-03-14T08:57:49.763Z,30.82
2023-03-14T09:00:20.500Z,30.78
2023-03-14T09:02:50.553Z,30.79
2023-03-14T09:05:20.522Z,30.78
2023-03-14T09:07:50.508Z,30.77
2023-03-14T09:10:38.872Z,30.78
2023-03-14T09:13:09.041Z,30.77
2023-03-14T09:15:38.981Z,30.79
2023-03-14T09:18:09.112Z,30.81
2023-03-14T09:20:58.409Z,30.81
2023-03-14T09:23:28.283Z,30.82
2023-03-14T09:25:59.497Z,30.84
2023-03-14T09:28:30.012Z,30.83
2023-03-14T09:31:00.109Z,30.81
2023-03-14T09:33:30.248Z,30.80
2023-03-14T09:36:03.171Z,30.82
2023-03-14T09:38:33.680Z,30.83
2023-03-14T09:41:08.366Z,30.85
2023-03-14T09:43:39.704Z,30.84
2023-03-14T09:46:13.058Z,30.82
2023-03-14T09:48:44.189Z,30.84
2023-03-14T09:51:20.203Z,30.81
2023-03-14T09:53:52.599Z,30.80
2023-03-14T09:56:31.719Z,30.81
2023-03-14T09:59:05.797Z,30.83
2023-03-14T10:01:37.062Z,30.87
2023-03-14T10:04:16.627Z,30.86
2023-03-14T10:06:46.705Z,30.83
2023-03-14T10:09:28.774Z,30.85
2023-03-14T10:12:08.998Z,30.87
2023-03-14T10:14:47.599Z,30.84
2023-03-14T10:17:19.929Z,30.86
2023-03-14T10:19:59.324Z,30.84
2023-03-14T10:22:38.505Z,30.82
2023-03-14T10:25:22.728Z,30.82
2023-03-14T10:27:52.844Z,30.81
2023-03-14T10:30:59.224Z,30.83
2023-03-14T10:33:38.389Z,30.83
2023-03-14T10:36:26.180Z,30.80
2023-03-14T10:39:21.772Z,30.82
2023-03-14T10:41:59.931Z,30.83
2023-03-14T10:44:30.188Z,30.81
2023-03-14T10:47:06.111Z,30.85
2023-03-14T10:49:40.991Z,30.84
2023-03-14T10:52:30.830Z,30.86
2023-03-14T10:55:05.207Z,30.88
2023-03-14T10:57:35.206Z,30.85
2023-03-14T11:00:11.397Z,30.85
2023-03-14T11:02:44.313Z,30.88
2023-03-14T11:05:43.702Z,30.83
2023-03-14T11:08:37.301Z,30.84
2023-03-14T11:11:28.745Z,30.85
2023-03-14T11:14:19.449Z,30.86
2023-03-14T11:17:12.580Z,30.86
2023-03-14T11:20:01.443Z,30.84
2023-03-14T11:22:36.429Z,30.85
2023-03-14T11:25:52.806Z,30.84
2023-03-14T11:28:25.694Z,30.85
2023-03-14T11:30:58.060Z,30.85
2023-03-14T11:34:03.097Z,30.84
2023-03-14T11:37:08.282Z,30.86
2023-03-14T11:39:50.262Z,30.86
2023-03-14T11:42:21.117Z,30.83
2023-03-14T11:44:52.837Z,30.88
2023-03-14T11:47:29.262Z,30.87
2023-03-14T11:50:30.418Z,30.87
2023-03-14T11:53:09.292Z,30.84
2023-03-14T11:55:42.311Z,30.84
2023-03-14T11:58:19.019Z,30.83
2023-03-14T12:00:52.527Z,30.84
2023-03-14T12:03:35.678Z,30.87
2023-03-14T12:06:23.945Z,30.88
2023-03-14T12:09:01.432Z,30.84
2023-03-14T12:11:59.735Z,30.86
2023-03-14T12:14:41.152Z,30.87
2023-03-14T12:17:11.149Z,30.87
2023-03-14T12:19:45.397Z,30.87
2023-03-14T12:22:32.998Z,30.88
2023-03-14T12:25:23.188Z,30.85
2023-03-14T12:28:02.280Z,30.83
2023-03-14T12:30:37.698Z,30.84
2023-03-14T12:33:13.579Z,30.82
2023-03-14T12:35:47.337Z,30.82
2023-03-14T12:41:30.387Z,30.81
2023-03-14T12:44:20.202Z,30.81
2023-03-14T12:47:20.600Z,30.81
2023-03-14T12:49:53.649Z,30.82
2023-03-14T12:52:36.437Z,30.84
2023-03-14T12:55:50.791Z,30.85
2023-03-14T12:58:33.139Z,30.86
2023-03-14T13:01:10.836Z,30.88
2023-03-14T13:04:06.072Z,30.86
2023-03-14T13:06:54.545Z,30.84
2023-03-14T13:10:04.311Z,30.83
2023-03-14T13:12:40.989Z,30.88
2023-03-14T13:57:31.669Z,30.94
2023-03-14T14:00:21.866Z,30.89
2023-03-14T14:02:53.297Z,30.94
2023-03-14T14:05:23.708Z,30.86
2023-03-14T14:07:55.508Z,30.98
2023-03-14T14:10:25.926Z,30.90
2023-03-14T14:13:02.616Z,30.97
2023-03-14T14:15:35.695Z,30.98
2023-03-14T14:20:57.617Z,30.96
2023-03-14T14:23:31.928Z,30.98
2023-03-14T14:26:02.894Z,31.00
2023-03-14T14:28:36.181Z,31.03
2023-03-14T14:31:18.059Z,30.99
2023-03-14T14:33:56.167Z,30.99
2023-03-14T14:36:44.608Z,31.09
2023-03-14T14:39:20.292Z,31.09
2023-03-14T14:41:53.400Z,31.09
2023-03-14T14:44:37.256Z,31.09
2023-03-14T14:47:08.108Z,31.04
2023-03-14T14:49:38.419Z,30.99
2023-03-14T14:52:13.399Z,30.95
2023-03-14T14:54:52.807Z,30.93
2023-03-14T14:57:28.169Z,30.91
2023-03-14T15:00:10.186Z,30.90
2023-03-14T15:02:55.510Z,31.01
2023-03-14T15:05:33.435Z,30.98
2023-03-14T15:08:03.664Z,31.11
2023-03-14T15:10:33.656Z,31.12
2023-03-14T15:13:03.606Z,31.10
2023-03-14T15:15:33.688Z,31.11
2023-03-14T15:18:03.975Z,31.08
2023-03-14T15:20:34.375Z,31.09
2023-03-14T15:23:04.471Z,31.13
2023-03-14T15:25:54.457Z,31.12
2023-03-14T15:28:27.118Z,31.08
2023-03-14T15:31:02.261Z,31.03
2023-03-14T15:33:32.470Z,30.96
2023-03-14T15:36:03.939Z,30.89
2023-03-14T15:38:35.793Z,30.90
2023-03-14T15:41:08.796Z,30.88
2023-03-14T15:43:38.902Z,30.85
2023-03-14T15:46:09.625Z,30.85
2023-03-14T15:48:40.116Z,30.82
2023-03-14T15:51:10.907Z,30.82
2023-03-14T15:53:41.870Z,30.81
2023-03-14T15:56:16.568Z,30.80
2023-03-14T15:58:49.637Z,30.82
2023-03-14T16:01:20.456Z,30.78
2023-03-14T16:03:52.432Z,30.74
2023-03-14T16:06:23.254Z,30.76
2023-03-14T16:08:53.424Z,30.75
2023-03-14T16:11:24.049Z,30.75
2023-03-14T16:13:55.379Z,30.73
2023-03-14T16:16:25.510Z,30.72
2023-03-14T16:18:55.963Z,30.71
2023-03-14T16:21:26.074Z,30.68
2023-03-14T16:23:55.984Z,30.73
2023-03-14T16:26:31.244Z,30.72
2023-03-14T16:29:01.377Z,30.73
2023-03-14T16:31:31.560Z,30.71
2023-03-14T16:34:06.040Z,30.73
2023-03-14T16:36:36.173Z,30.73
2023-03-14T16:39:06.880Z,30.72
2023-03-14T16:41:37.293Z,30.68
2023-03-14T16:44:07.622Z,30.71
2023-03-14T16:46:38.601Z,30.70
2023-03-14T16:49:08.990Z,30.69
2023-03-14T16:51:39.101Z,30.68
2023-03-14T16:54:09.373Z,30.67
2023-03-14T16:56:39.735Z,30.67
2023-03-14T16:59:09.899Z,30.66
2023-03-14T17:01:40.218Z,30.70
2023-03-14T17:04:11.753Z,30.67
2023-03-14T17:06:41.934Z,30.67
2023-03-14T17:09:11.858Z,30.66
2023-03-14T17:11:42.116Z,30.65
2023-03-14T17:14:12.239Z,30.67
2023-03-14T17:16:42.274Z,30.67
2023-03-14T17:19:12.234Z,30.66
2023-03-14T17:21:42.189Z,30.67
2023-03-14T17:24:12.077Z,30.68
2023-03-14T17:26:41.951Z,30.68
2023-03-14T17:29:11.832Z,30.68
2023-03-14T17:31:43.127Z,30.69
2023-03-14T17:34:13.977Z,30.71
2023-03-14T17:36:44.038Z,30.69
2023-03-14T17:39:13.907Z,30.72
2023-03-14T17:41:43.788Z,30.74
2023-03-14T17:44:13.678Z,30.69
2023-03-14T17:46:43.431Z,30.68
2023-03-14T17:49:13.418Z,30.69
2023-03-14T17:51:43.488Z,30.66
2023-03-14T17:54:13.594Z,30.65
2023-03-14T17:56:45.934Z,30.65
2023-03-14T17:59:16.007Z,30.62
2023-03-14T18:01:46.133Z,30.63
2023-03-14T18:04:16.958Z,30.66
2023-03-14T18:06:47.193Z,30.63
2023-03-14T18:09:17.575Z,30.64
2023-03-14T18:11:48.387Z,30.64
2023-03-14T18:14:19.921Z,30.63
2023-03-14T18:16:52.242Z,30.63
2023-03-14T18:19:24.057Z,30.63
2023-03-14T18:21:54.239Z,30.62
2023-03-14T18:24:24.582Z,30.61
2023-03-14T18:26:54.686Z,30.63
2023-03-14T18:29:25.305Z,30.63
2023-03-14T18:31:55.628Z,30.62
2023-03-14T18:34:26.272Z,30.61
2023-03-14T18:36:56.431Z,30.61
2023-03-14T18:39:26.388Z,30.60
2023-03-14T18:41:56.267Z,30.61
2023-03-14T18:44:26.186Z,30.60
2023-03-14T18:46:56.225Z,30.61
2023-03-14T18:49:26.383Z,30.57
2023-03-14T18:51:56.517Z,30.56
2023-03-14T18:54:26.378Z,30.57
2023-03-14T18:56:56.486Z,30.57
2023-03-14T18:59:26.327Z,30.56
2023-03-14T19:01:56.456Z,30.56
2023-03-14T19:04:26.909Z,30.56
2023-03-14T19:06:56.928Z,30.55
2023-03-14T19:09:27.207Z,30.58
2023-03-14T19:11:57.204Z,30.56
2023-03-14T19:14:27.058Z,30.53
2023-03-14T19:16:57.422Z,30.55
2023-03-14T19:19:27.342Z,30.52
2023-03-14T19:21:57.544Z,30.51
2023-03-14T19:24:27.677Z,30.54
2023-03-14T19:26:57.875Z,30.52
2023-03-14T19:29:27.949Z,30.52
2023-03-14T19:31:58.123Z,30.52
2023-03-14T19:34:28.701Z,30.50
2023-03-14T19:37:01.129Z,30.50
2023-03-14T19:39:31.138Z,30.49
2023-03-14T19:42:01.656Z,30.49
2023-03-14T19:44:31.805Z,30.49
2023-03-14T19:47:02.078Z,30.48
2023-03-14T19:49:32.531Z,30.49
2023-03-14T19:52:03.594Z,30.48
2023-03-14T19:54:33.910Z,30.48
2023-03-14T19:57:06.396Z,30.46
2023-03-14T19:59:36.612Z,30.47
2023-03-14T20:02:07.218Z,30.47
2023-03-14T20:04:38.274Z,30.44
2023-03-14T20:07:08.457Z,30.44
2023-03-14T20:09:39.465Z,30.44
2023-03-14T20:12:10.933Z,30.43
2023-03-14T20:14:41.072Z,30.43
2023-03-14T20:17:11.041Z,30.42
2023-03-14T20:19:41.028Z,30.41
2023-03-14T20:22:11.197Z,30.40
2023-03-14T20:24:41.226Z,30.41
2023-03-14T20:27:11.208Z,30.41
2023-03-14T20:29:41.468Z,30.41
2023-03-14T20:32:11.749Z,30.42
2023-03-14T20:34:43.438Z,30.40
2023-03-14T20:37:15.685Z,30.40
2023-03-14T20:39:46.474Z,30.40
2023-03-14T20:42:16.656Z,30.41
2023-03-14T20:44:47.252Z,30.40
2023-03-14T20:47:17.401Z,30.39
2023-03-14T20:49:47.343Z,30.39
2023-03-14T20:52:17.778Z,30.41
2023-03-14T20:54:48.409Z,30.37
2023-03-14T20:57:18.920Z,30.37
2023-03-14T20:59:49.006Z,30.37
2023-03-14T21:02:19.118Z,30.37
2023-03-14T21:04:49.374Z,30.35
2023-03-14T21:07:19.494Z,30.36
2023-03-14T21:09:49.493Z,30.35
2023-03-14T21:12:19.417Z,30.34
2023-03-14T21:14:49.343Z,30.34
2023-03-14T21:17:19.419Z,30.34
2023-03-14T21:19:49.510Z,30.34
2023-03-14T21:22:20.516Z,30.35
2023-03-14T21:24:50.695Z,30.33
2023-03-14T21:27:20.565Z,30.33
2023-03-14T21:29:50.867Z,30.33
2023-03-14T21:32:21.103Z,30.34
2023-03-14T21:34:51.807Z,30.33
2023-03-14T21:37:22.031Z,30.31
2023-03-14T21:39:52.463Z,30.33
2023-03-14T21:42:22.612Z,30.31
2023-03-14T21:44:54.301Z,30.31
2023-03-14T21:47:27.456Z,30.30
2023-03-14T21:49:57.556Z,30.31
2023-03-14T21:52:27.877Z,30.31
2023-03-14T21:54:57.902Z,30.30
2023-03-14T21:57:32.395Z,30.29
2023-03-14T22:00:02.582Z,30.27
2023-03-14T22:02:34.373Z,30.29
2023-03-14T22:05:04.654Z,30.30
2023-03-14T22:07:34.537Z,30.30
2023-03-14T22:10:06.248Z,30.30
2023-03-14T22:12:36.353Z,30.29
2023-03-14T22:15:08.452Z,30.28
2023-03-14T22:17:39.095Z,30.28
2023-03-14T22:20:13.091Z,30.26
2023-03-14T22:22:43.512Z,30.25
2023-03-14T22:25:13.552Z,30.27
2023-03-14T22:27:43.392Z,30.29
2023-03-14T22:30:13.992Z,30.29
2023-03-14T22:32:44.090Z,30.31
2023-03-14T22:35:14.168Z,30.28
2023-03-14T22:37:44.203Z,30.29
2023-03-14T22:40:14.763Z,30.28
2023-03-14T22:42:44.884Z,30.26
2023-03-14T22:45:15.007Z,30.22
2023-03-14T22:47:45.002Z,30.23
2023-03-14T22:50:14.967Z,30.24
2023-03-14T22:52:45.372Z,30.27
2023-03-14T22:55:15.803Z,30.26
2023-03-14T22:57:46.009Z,30.24
2023-03-14T23:00:42.975Z,30.29
2023-03-14T23:03:13.138Z,30.28
2023-03-14T23:05:43.287Z,30.18
2023-03-14T23:08:13.443Z,30.13
2023-03-14T23:10:45.277Z,30.05
2023-03-14T23:13:18.470Z,30.06
2023-03-14T23:15:48.497Z,30.03
2023-03-14T23:18:18.804Z,30.00
2023-03-14T23:20:50.463Z,30.04
2023-03-14T23:23:20.609Z,30.05
2023-03-14T23:25:53.712Z,30.06
2023-03-14T23:28:25.237Z,30.03
2023-03-14T23:30:58.987Z,30.05
2023-03-14T23:33:30.830Z,30.06
2023-03-14T23:36:01.164Z,30.06
2023-03-14T23:38:31.953Z,30.06
2023-03-14T23:41:03.357Z,30.05
2023-03-14T23:43:34.739Z,30.06
2023-03-14T23:46:05.038Z,30.05
2023-03-14T23:48:38.542Z,30.08
2023-03-14T23:51:11.796Z,30.06
2023-03-14T23:53:46.072Z,30.04
2023-03-14T23:56:18.411Z,30.02
2023-03-14T23:58:49.016Z,30.05
